Bunker Hill, IN

10:34 AM EDT on October 22, 2014 (GMT -0400)
Marion Municipal | Change Station
CLOSE
Current Station
Airport
Location: Marion,
Elevation: 856 ft
Nearby Weather Stations

Elev 856 ft 40.49 °N, 85.68 °W | Updated 19 minutes ago

Clear
Clear
42 °F
Feels Like 39 °F
N
5
Wind Variable Wind from NE

Today
High -- | Low -- °F
--% Chance of Precip.
Yesterday
High -- | Low -- °F
Precip. -- in
8:03 AM 6:53 PM
Waning Crescent, 2% visible
Pressure 30.34 in
Visibility 10.0 miles
Clouds Overcast 2200 ft
Windchill 39 °F
Dew Point 37 °F
Humidity 82%
Rainfall 0.00 in
Snow Depth Not available.
UV 1 out of 12
Pollen .80 out of 12
Air Quality Not available.
Flu Activity Sporadic
METAR KMZZ 221415Z AUTO 05004KT 10SM OVC022 05/03 A3034 RMK AO2 T00540026

More Conditions Fewer Conditions

Pressure 30.34 in
Visibility 10.0 miles
Clouds Overcast 2200 ft
Windchill 39 °F
Dew Point 37 °F
Humidity 82%
Rainfall 0.00 in
Snow Depth Not available.
UV 1 out of 12
Pollen .80 out of 12
Air Quality Not available.
Flu Activity Sporadic
METAR KMZZ 221415Z AUTO 05004KT 10SM OVC022 05/03 A3034 RMK AO2 T00540026

More Conditions Fewer Conditions

10-Day Weather Forecast

Almanac

Astronomy

Oct. 22, 2014 Rise Set
Actual Time 8:03 AM EDT 6:53 PM EDT
Civil Twilight 7:35 AM EDT 7:21 PM EDT
Nautical Twilight 7:03 AM EDT 7:53 PM EDT
Astronomical Twilight 6:31 AM EDT 8:25 PM EDT
Moon 6:43 AM EDT 6:20 PM EDT
Length of Visible Light 11h 46m
Length of Day
10h 50m
Tomorrow will be 2m 31s shorter.
Waning Crescent, 2% of the Moon is Illuminated
Today
Waning Crescent
Oct 23
New
Oct 30
First Quarter
Nov 6
Full
Nov 14
Last Quarter

Today's Extremes

State Highs State Lows

Community

WunderPhotos

Upload Photos

1,763,935 photos uploaded!

WunderBlogs® & News

Nearby

Snow Depth

Station Depth Elevation
No new snow has been reported.

Earthquake Activity

City Distance Mag. Time & Date
No recent earthquake activity has been reported nearby.
Minimum magnitude displayed is 2.5.

Coastal Water Temperatures

Place Temperature
No Stations Reporting

Nearby Weather Stations